Terminal Aerodrome Forecast
Issued by NWS

Home | Current Version | Previous Version | Text Only | Print | Product List | Glossary On
Versions: 1 2 3 4 5 6 7 8 9 10 11 12 13 14 15 16 17 18 19 20 21 22 23 24 25 26 27 28 29 30 31 32 33
000
FTUS41 KCAR 110540
TAFFVE
TAF
KFVE 110540Z 1106/1206 29008KT P6SM BKN035
     FM110900 28005KT P6SM BKN035
     FM111700 27006KT P6SM BKN040
     FM112300 27004KT P6SM BKN060
     FM120400 00000KT P6SM BKN150=

USA.gov is the U.S. government's official web portal to all federal, state and local government web resources and services.